createdAt,value
2023-03-26T00:00:00.165Z,428.33
2023-03-26T00:01:00.149Z,429.71
2023-03-26T00:02:00.212Z,418.35
2023-03-26T00:03:00.174Z,431.67
2023-03-26T00:04:00.129Z,420.46
2023-03-26T00:05:00.165Z,425.58
2023-03-26T00:06:00.180Z,433.64
2023-03-26T00:07:00.156Z,449.48
2023-03-26T00:08:00.091Z,454.09
2023-03-26T00:09:00.047Z,444.37
2023-03-26T00:10:00.054Z,442.89
2023-03-26T00:11:01.136Z,430.55
2023-03-26T00:12:00.035Z,436.49
2023-03-26T00:12:59.993Z,429.43
2023-03-26T00:13:59.985Z,423.41
2023-03-26T00:14:59.976Z,430.27
2023-03-26T00:15:59.964Z,421.53
2023-03-26T00:16:59.980Z,421.80
2023-03-26T00:17:59.983Z,424.49
2023-03-26T00:18:59.958Z,431.95
2023-03-26T00:19:59.932Z,427.23
2023-03-26T00:20:59.909Z,433.36
2023-03-26T00:21:59.891Z,436.49
2023-03-26T00:22:59.882Z,432.23
2023-03-26T00:23:59.959Z,434.21
2023-03-26T00:24:59.845Z,431.39
2023-03-26T00:25:59.862Z,432.23
2023-03-26T00:26:59.925Z,436.77
2023-03-26T00:27:59.813Z,450.09
2023-03-26T00:28:59.795Z,447.36
2023-03-26T00:29:59.796Z,451.62
2023-03-26T00:30:59.802Z,442.01
2023-03-26T00:31:59.797Z,457.53
2023-03-26T00:32:59.805Z,446.46
2023-03-26T00:33:59.773Z,452.54
2023-03-26T00:34:59.734Z,459.11
2023-03-26T00:36:00.427Z,454.09
2023-03-26T00:36:59.686Z,452.24
2023-03-26T00:37:59.687Z,452.24
2023-03-26T00:38:59.678Z,458.16
2023-03-26T00:40:00.921Z,447.36
2023-03-26T00:40:59.637Z,448.57
2023-03-26T00:41:59.646Z,449.48
2023-03-26T00:42:59.628Z,447.06
2023-03-26T00:43:59.630Z,451.01
2023-03-26T00:44:59.594Z,451.31
2023-03-26T00:45:59.590Z,462.95
2023-03-26T00:46:59.598Z,461.98
2023-03-26T00:47:59.608Z,454.40
2023-03-26T00:48:59.548Z,449.79
2023-03-26T00:49:59.592Z,447.67
2023-03-26T00:50:59.519Z,451.01
2023-03-26T00:51:59.505Z,450.40
2023-03-26T00:52:59.505Z,452.85
2023-03-26T00:53:59.477Z,453.47
2023-03-26T00:54:59.479Z,455.65
2023-03-26T00:55:59.449Z,440.25
2023-03-26T00:56:59.480Z,440.25
2023-03-26T00:57:59.443Z,449.18
2023-03-26T00:58:59.415Z,439.96
2023-03-26T00:59:59.418Z,449.48
2023-03-26T01:00:59.390Z,461.98
2023-03-26T01:01:59.387Z,457.22
2023-03-26T01:02:59.513Z,447.97
2023-03-26T01:04:08.314Z,455.34
2023-03-26T01:04:59.429Z,452.54
2023-03-26T01:05:59.343Z,446.76
2023-03-26T01:06:59.315Z,440.25
2023-03-26T01:07:59.288Z,442.60
2023-03-26T01:08:59.293Z,447.67
2023-03-26T01:09:59.266Z,436.77
2023-03-26T01:10:59.258Z,434.77
2023-03-26T01:11:59.271Z,439.08
2023-03-26T01:12:59.232Z,441.71
2023-03-26T01:13:59.238Z,452.54
2023-03-26T01:14:59.219Z,451.01
2023-03-26T01:15:59.240Z,461.02
2023-03-26T01:16:59.181Z,451.31
2023-03-26T01:17:59.240Z,439.67
2023-03-26T01:18:59.156Z,446.76
2023-03-26T01:19:59.135Z,446.16
2023-03-26T01:20:59.153Z,451.31
2023-03-26T01:21:59.149Z,447.36
2023-03-26T01:22:59.102Z,449.18
2023-03-26T01:23:59.101Z,436.20
2023-03-26T01:24:59.095Z,437.35
2023-03-26T01:25:59.054Z,436.20
2023-03-26T01:26:59.062Z,432.79
2023-03-26T01:27:59.052Z,428.05
2023-03-26T01:28:59.029Z,421.80
2023-03-26T01:29:59.016Z,409.07
2023-03-26T01:30:59.029Z,424.49
2023-03-26T01:31:58.977Z,422.87
2023-03-26T01:32:59.097Z,418.61
2023-03-26T01:33:58.972Z,422.87
2023-03-26T01:34:58.942Z,420.73
2023-03-26T01:35:58.964Z,430.83
2023-03-26T01:36:58.963Z,430.27
2023-03-26T01:37:58.941Z,425.31
2023-03-26T01:38:59.390Z,420.46
2023-03-26T01:39:58.908Z,426.95
2023-03-26T01:40:58.872Z,424.49
2023-03-26T01:41:58.853Z,433.36
2023-03-26T01:42:58.842Z,434.21
2023-03-26T01:43:58.821Z,431.11
2023-03-26T01:44:58.846Z,425.86
2023-03-26T01:45:58.813Z,428.05
2023-03-26T01:46:58.796Z,436.20
2023-03-26T01:47:58.806Z,434.49
2023-03-26T01:48:58.767Z,424.49
2023-03-26T01:49:58.753Z,424.49
2023-03-26T01:50:58.766Z,425.31
2023-03-26T01:51:58.731Z,424.22
2023-03-26T01:52:58.704Z,410.08
2023-03-26T01:53:58.719Z,406.82
2023-03-26T01:54:58.694Z,408.07
2023-03-26T01:55:58.662Z,404.83
2023-03-26T01:56:58.737Z,404.59
2023-03-26T01:57:58.659Z,414.43
2023-03-26T01:58:58.647Z,412.37
2023-03-26T01:59:58.625Z,416.25
2023-03-26T02:00:58.616Z,413.40
2023-03-26T02:01:58.670Z,411.61
2023-03-26T02:02:58.692Z,410.59
2023-03-26T02:03:58.558Z,404.59
2023-03-26T02:04:58.587Z,403.12
2023-03-26T02:05:58.538Z,408.57
2023-03-26T02:06:58.539Z,404.10
2023-03-26T02:07:58.565Z,398.04
2023-03-26T02:08:58.505Z,395.67
2023-03-26T02:09:58.493Z,401.90
2023-03-26T02:10:58.519Z,397.57
2023-03-26T02:11:58.467Z,405.08
2023-03-26T02:12:58.451Z,404.83
2023-03-26T02:13:58.459Z,400.20
2023-03-26T02:14:58.455Z,411.35
2023-03-26T02:15:58.464Z,406.57
2023-03-26T02:16:58.395Z,400.44
2023-03-26T02:17:58.432Z,401.90
2023-03-26T02:18:58.394Z,411.86
2023-03-26T02:19:58.382Z,411.10
2023-03-26T02:20:58.346Z,408.82
2023-03-26T02:21:58.346Z,407.82
2023-03-26T02:22:58.342Z,407.07
2023-03-26T02:23:58.304Z,411.10
2023-03-26T02:24:58.298Z,413.14
2023-03-26T02:25:58.301Z,405.08
2023-03-26T02:26:58.298Z,405.58
2023-03-26T02:27:58.248Z,400.20
2023-03-26T02:28:58.251Z,410.08
2023-03-26T02:29:58.274Z,404.34
2023-03-26T02:30:58.258Z,408.32
2023-03-26T02:31:58.234Z,404.59
2023-03-26T02:32:58.265Z,400.68
2023-03-26T02:33:58.177Z,407.82
2023-03-26T02:34:58.154Z,410.34
2023-03-26T02:35:58.479Z,408.82
2023-03-26T02:36:58.133Z,410.84
2023-03-26T02:37:58.136Z,414.95
2023-03-26T02:38:58.260Z,415.47
2023-03-26T02:39:58.118Z,412.37
2023-03-26T02:40:58.097Z,413.40
2023-03-26T02:41:58.066Z,403.12
2023-03-26T02:42:58.052Z,408.32
2023-03-26T02:43:58.049Z,407.07
2023-03-26T02:44:58.045Z,402.14
2023-03-26T02:45:58.320Z,405.08
2023-03-26T02:46:58.016Z,397.80
2023-03-26T02:47:58.049Z,395.44
2023-03-26T02:48:57.982Z,398.52
2023-03-26T02:49:57.960Z,397.80
2023-03-26T02:50:58.007Z,399.24
2023-03-26T02:51:57.968Z,404.10
2023-03-26T02:52:57.954Z,402.14
2023-03-26T02:53:57.908Z,398.04
2023-03-26T02:54:57.900Z,391.71
2023-03-26T02:55:57.901Z,384.68
2023-03-26T02:56:57.933Z,373.29
2023-03-26T02:57:57.855Z,378.03
2023-03-26T02:58:57.871Z,378.03
2023-03-26T02:59:57.846Z,372.86
2023-03-26T03:00:57.915Z,378.47
2023-03-26T03:01:57.863Z,370.75
2023-03-26T03:02:57.988Z,369.07
2023-03-26T03:03:57.823Z,359.33
2023-03-26T03:04:57.771Z,354.27
2023-03-26T03:05:57.897Z,362.12
2023-03-26T03:06:57.774Z,368.24
2023-03-26T03:07:57.724Z,381.14
2023-03-26T03:08:57.739Z,378.47
2023-03-26T03:09:57.700Z,375.00
2023-03-26T03:10:57.725Z,383.79
2023-03-26T03:11:57.721Z,386.24
2023-03-26T03:12:57.679Z,396.14
2023-03-26T03:13:57.658Z,376.29
2023-03-26T03:14:57.660Z,383.79
2023-03-26T03:15:57.752Z,383.57
2023-03-26T03:16:57.635Z,389.41
2023-03-26T03:17:57.628Z,385.79
2023-03-26T03:18:58.386Z,393.33
2023-03-26T03:19:57.625Z,380.05
2023-03-26T03:20:57.562Z,378.47
2023-03-26T03:21:57.557Z,381.36
2023-03-26T03:22:57.563Z,369.91
2023-03-26T03:24:00.174Z,374.14
2023-03-26T03:24:57.516Z,386.02
2023-03-26T03:25:57.663Z,380.71
2023-03-26T03:26:57.510Z,378.47
2023-03-26T03:27:57.516Z,375.00
2023-03-26T03:28:57.468Z,383.12
2023-03-26T03:29:57.444Z,382.68
2023-03-26T03:30:57.522Z,377.16
2023-03-26T03:31:57.434Z,378.47
2023-03-26T03:32:57.446Z,378.03
2023-03-26T03:33:57.401Z,385.12
2023-03-26T03:34:57.398Z,378.91
2023-03-26T03:35:57.606Z,370.75
2023-03-26T03:36:57.390Z,365.77
2023-03-26T03:37:57.374Z,365.77
2023-03-26T03:38:57.333Z,359.33
2023-03-26T03:39:57.317Z,360.92
2023-03-26T03:40:57.346Z,359.73
2023-03-26T03:41:57.294Z,360.13
2023-03-26T03:42:57.292Z,351.60
2023-03-26T03:43:57.262Z,353.12
2023-03-26T03:44:57.290Z,364.95
2023-03-26T03:45:57.527Z,356.59
2023-03-26T03:46:57.239Z,362.52
2023-03-26T03:47:57.324Z,364.95
2023-03-26T03:48:57.224Z,366.18
2023-03-26T03:49:57.210Z,358.55
2023-03-26T03:50:57.180Z,365.36
2023-03-26T03:51:57.189Z,351.60
2023-03-26T03:52:57.182Z,344.93
2023-03-26T03:53:57.150Z,346.02
2023-03-26T03:54:57.152Z,355.43
2023-03-26T03:55:57.432Z,360.13
2023-03-26T03:56:57.120Z,353.51
2023-03-26T03:57:57.105Z,358.55
2023-03-26T03:58:57.077Z,351.60
2023-03-26T03:59:57.069Z,343.84
2023-03-26T04:00:57.072Z,343.84
2023-03-26T04:01:57.031Z,348.23
2023-03-26T04:02:57.065Z,350.47
2023-03-26T04:03:57.029Z,339.90
2023-03-26T04:04:57.014Z,338.85
2023-03-26T04:05:57.121Z,338.15
2023-03-26T04:06:57.011Z,331.29
2023-03-26T04:07:56.956Z,336.75
2023-03-26T04:08:56.972Z,341.32
2023-03-26T04:09:56.970Z,336.41
2023-03-26T04:10:56.939Z,327.64
2023-03-26T04:11:56.920Z,320.57
2023-03-26T04:12:56.919Z,320.57
2023-03-26T04:13:56.887Z,308.76
2023-03-26T04:14:56.862Z,319.94
2023-03-26T04:15:57.231Z,323.43
2023-03-26T04:16:56.864Z,313.80
2023-03-26T04:17:56.897Z,323.11
2023-03-26T04:18:56.855Z,326.01
2023-03-26T04:19:56.838Z,313.80
2023-03-26T04:20:56.806Z,308.47
2023-03-26T04:21:56.799Z,313.80
2023-03-26T04:22:56.789Z,322.15
2023-03-26T04:23:56.754Z,315.31
2023-03-26T04:24:56.761Z,312.30
2023-03-26T04:25:56.958Z,305.59
2023-03-26T04:26:56.708Z,314.10
2023-03-26T04:27:56.692Z,317.77
2023-03-26T04:28:56.718Z,336.06
2023-03-26T04:29:56.681Z,341.68
2023-03-26T04:30:56.658Z,332.64
2023-03-26T04:31:56.640Z,333.32
2023-03-26T04:32:56.670Z,344.93
2023-03-26T04:33:56.669Z,343.84
2023-03-26T04:34:56.601Z,347.49
2023-03-26T04:35:56.918Z,344.20
2023-03-26T04:36:56.584Z,342.40
2023-03-26T04:37:56.594Z,340.97
2023-03-26T04:38:56.573Z,330.62
2023-03-26T04:39:56.591Z,328.96
2023-03-26T04:40:56.586Z,321.20
2023-03-26T04:41:56.509Z,328.63
2023-03-26T04:42:56.506Z,328.63
2023-03-26T04:43:56.492Z,318.70
2023-03-26T04:44:56.499Z,320.26
2023-03-26T04:45:56.669Z,330.29
2023-03-26T04:46:56.478Z,322.79
2023-03-26T04:47:56.460Z,327.97
2023-03-26T04:48:56.456Z,328.96
2023-03-26T04:49:56.419Z,335.37
2023-03-26T04:50:56.414Z,331.29
2023-03-26T04:51:56.408Z,327.97
2023-03-26T04:52:56.388Z,326.33
2023-03-26T04:53:56.361Z,328.30
2023-03-26T04:54:56.366Z,325.03
2023-03-26T04:55:56.449Z,324.07
2023-03-26T04:56:56.366Z,315.62
2023-03-26T04:57:56.302Z,321.20
2023-03-26T04:58:56.320Z,319.32
2023-03-26T04:59:56.326Z,320.89
2023-03-26T05:00:56.337Z,334.00
2023-03-26T05:01:56.248Z,337.10
2023-03-26T05:02:56.457Z,341.68
2023-03-26T05:03:56.285Z,333.32
2023-03-26T05:04:56.236Z,335.03
2023-03-26T05:05:56.413Z,325.03
2023-03-26T05:06:56.187Z,323.11
2023-03-26T05:07:56.187Z,321.20
2023-03-26T05:08:56.192Z,311.71
2023-03-26T05:09:56.153Z,313.80
2023-03-26T05:10:56.320Z,312.60
2023-03-26T05:11:56.149Z,305.02
2023-03-26T05:12:56.127Z,299.98
2023-03-26T05:13:56.097Z,321.52
2023-03-26T05:14:56.120Z,323.75
2023-03-26T05:15:56.076Z,322.47
2023-03-26T05:16:56.079Z,317.46
2023-03-26T05:17:56.069Z,316.54
2023-03-26T05:18:56.030Z,326.01
2023-03-26T05:19:56.053Z,330.29
2023-03-26T05:20:56.254Z,330.62
2023-03-26T05:21:55.987Z,331.29
2023-03-26T05:22:55.986Z,323.11
2023-03-26T05:23:55.965Z,332.98
2023-03-26T05:24:55.944Z,325.68
2023-03-26T05:25:55.966Z,342.40
2023-03-26T05:26:55.947Z,327.64
2023-03-26T05:27:55.929Z,329.29
2023-03-26T05:28:55.893Z,341.32
2023-03-26T05:29:55.887Z,337.10
2023-03-26T05:30:56.063Z,341.32
2023-03-26T05:31:55.863Z,333.66
2023-03-26T05:32:55.943Z,328.63
2023-03-26T05:33:55.914Z,331.63
2023-03-26T05:34:55.814Z,337.10
2023-03-26T05:35:55.889Z,337.45
2023-03-26T05:36:55.794Z,330.96
2023-03-26T05:37:55.778Z,326.66
2023-03-26T05:38:55.762Z,328.30
2023-03-26T05:39:55.773Z,328.63
2023-03-26T05:40:55.913Z,327.64
2023-03-26T05:41:55.751Z,329.95
2023-03-26T05:42:55.744Z,328.30
2023-03-26T05:43:55.728Z,323.75
2023-03-26T05:44:55.693Z,326.98
2023-03-26T05:45:55.755Z,322.47
2023-03-26T05:46:55.665Z,327.31
2023-03-26T05:47:55.683Z,334.00
2023-03-26T05:48:55.653Z,334.00
2023-03-26T05:49:55.635Z,336.75
2023-03-26T05:50:55.791Z,338.50
2023-03-26T05:51:55.677Z,340.97
2023-03-26T05:52:55.588Z,347.86
2023-03-26T05:53:55.579Z,340.97
2023-03-26T05:54:55.571Z,341.32
2023-03-26T05:55:55.582Z,345.29
2023-03-26T05:56:55.563Z,343.48
2023-03-26T05:57:55.523Z,340.26
2023-03-26T05:58:55.504Z,326.01
2023-03-26T05:59:55.494Z,322.79
2023-03-26T06:00:55.819Z,319.01
2023-03-26T06:01:55.498Z,315.62
2023-03-26T06:02:56.446Z,313.20
2023-03-26T06:03:55.528Z,319.32
2023-03-26T06:04:55.476Z,320.57
2023-03-26T06:05:55.429Z,320.57
2023-03-26T06:06:55.426Z,325.03
2023-03-26T06:07:55.403Z,322.79
2023-03-26T06:09:01.813Z,325.36
2023-03-26T06:09:55.436Z,323.75
2023-03-26T06:10:55.514Z,316.84
2023-03-26T06:11:55.352Z,313.80
2023-03-26T06:12:55.373Z,310.82
2023-03-26T06:13:55.320Z,301.08
2023-03-26T06:14:55.308Z,303.60
2023-03-26T06:15:55.319Z,320.89
2023-03-26T06:16:55.279Z,319.01
2023-03-26T06:17:55.340Z,319.94
2023-03-26T06:18:56.542Z,325.68
2023-03-26T06:19:55.257Z,330.29
2023-03-26T06:20:55.356Z,324.39
2023-03-26T06:21:55.235Z,334.00
2023-03-26T06:22:55.191Z,347.12
2023-03-26T06:23:55.197Z,362.52
2023-03-26T06:24:55.176Z,370.75
2023-03-26T06:25:55.167Z,378.03
2023-03-26T06:26:55.147Z,392.40
2023-03-26T06:27:55.145Z,387.59
2023-03-26T06:28:55.127Z,397.33
2023-03-26T06:29:55.107Z,405.58
2023-03-26T06:30:55.306Z,398.04
2023-03-26T06:31:55.090Z,403.61
2023-03-26T06:32:55.101Z,398.76
2023-03-26T06:33:55.068Z,399.96
2023-03-26T06:34:55.044Z,408.32
2023-03-26T06:35:55.045Z,414.17
2023-03-26T06:36:55.050Z,422.34
2023-03-26T06:37:55.003Z,417.56
2023-03-26T06:38:54.985Z,411.61
2023-03-26T06:39:54.976Z,416.77
2023-03-26T06:40:55.195Z,416.77
2023-03-26T06:41:54.963Z,414.43
2023-03-26T06:43:08.699Z,417.56
2023-03-26T06:43:54.952Z,428.33
2023-03-26T06:44:54.913Z,432.79
2023-03-26T06:45:54.898Z,423.41
2023-03-26T06:46:54.929Z,417.56
2023-03-26T06:47:54.937Z,409.33
2023-03-26T06:48:54.883Z,404.10
2023-03-26T06:49:54.863Z,402.14
2023-03-26T06:50:55.111Z,396.14
2023-03-26T06:51:54.878Z,391.02
2023-03-26T06:52:54.819Z,388.73
2023-03-26T06:53:54.814Z,388.73
2023-03-26T06:54:54.779Z,382.02
2023-03-26T06:55:54.777Z,372.01
2023-03-26T06:56:54.822Z,360.52
2023-03-26T06:57:54.760Z,349.35
2023-03-26T06:58:54.782Z,348.60
2023-03-26T06:59:54.725Z,347.86
2023-03-26T07:00:55.159Z,344.20
2023-03-26T07:01:54.705Z,339.90
2023-03-26T07:02:54.804Z,319.94
2023-03-26T07:03:54.697Z,325.03
2023-03-26T07:04:54.673Z,321.52
2023-03-26T07:05:54.665Z,324.07
2023-03-26T07:06:54.631Z,320.57
2023-03-26T07:07:54.627Z,311.41
2023-03-26T07:08:54.712Z,310.23
2023-03-26T07:09:54.594Z,299.98
2023-03-26T07:10:54.739Z,287.07
2023-03-26T07:11:54.575Z,287.07
2023-03-26T07:12:54.565Z,294.04
2023-03-26T07:13:54.595Z,289.10
2023-03-26T07:14:54.534Z,292.20
2023-03-26T07:15:54.534Z,290.39
2023-03-26T07:16:54.501Z,288.08
2023-03-26T07:17:54.547Z,284.57
2023-03-26T07:18:54.493Z,275.23
2023-03-26T07:19:54.494Z,267.35
2023-03-26T07:20:54.711Z,260.74
2023-03-26T07:21:54.454Z,254.64
2023-03-26T07:22:54.459Z,241.30
2023-03-26T07:23:56.528Z,230.90
2023-03-26T07:24:54.389Z,229.60
2023-03-26T07:25:54.404Z,229.60
2023-03-26T07:26:54.387Z,225.49
2023-03-26T07:27:54.405Z,226.11
2023-03-26T07:29:04.486Z,213.14
2023-03-26T07:29:54.345Z,215.52
2023-03-26T07:30:54.430Z,213.27
2023-03-26T07:31:54.332Z,209.72
2023-03-26T07:32:54.405Z,209.18
2023-03-26T07:33:54.290Z,202.57
2023-03-26T07:36:57.895Z,99.19
2023-03-26T07:38:08.079Z,118.92
2023-03-26T07:38:58.866Z,128.18
2023-03-26T07:39:58.680Z,129.38
2023-03-26T07:40:58.580Z,130.60
2023-03-26T07:41:58.713Z,132.05
2023-03-26T07:43:07.639Z,131.84
2023-03-26T07:43:58.751Z,124.72
2023-03-26T07:44:59.131Z,113.25
2023-03-26T07:45:59.537Z,107.12
2023-03-26T07:46:58.694Z,94.09
2023-03-26T07:47:58.624Z,95.05
2023-03-26T07:48:58.547Z,99.43
2023-03-26T07:49:58.489Z,99.61
2023-03-26T07:50:59.558Z,101.25
2023-03-26T07:51:58.668Z,104.17
2023-03-26T07:52:58.438Z,108.09
2023-03-26T07:53:58.409Z,112.18
2023-03-26T07:54:59.717Z,113.95
2023-03-26T07:55:58.406Z,114.73
2023-03-26T07:56:59.136Z,112.41
2023-03-26T07:57:58.597Z,112.33
2023-03-26T07:58:58.394Z,110.03
2023-03-26T07:59:58.401Z,110.17
2023-03-26T08:00:59.196Z,109.74
2023-03-26T08:01:58.477Z,112.33
2023-03-26T08:02:58.457Z,117.49
2023-03-26T08:03:58.823Z,121.53
2023-03-26T08:04:58.407Z,126.04
2023-03-26T08:05:58.362Z,129.78
2023-03-26T08:06:58.252Z,132.15
2023-03-26T08:07:58.225Z,128.68
2023-03-26T08:08:58.467Z,125.38
2023-03-26T08:09:58.352Z,123.06
2023-03-26T08:10:58.175Z,127.20
2023-03-26T08:11:58.325Z,124.35
2023-03-26T08:12:59.042Z,120.64
2023-03-26T08:13:58.204Z,112.33
2023-03-26T08:14:58.817Z,107.40
2023-03-26T08:15:58.244Z,105.62
2023-03-26T08:16:58.181Z,104.76
2023-03-26T08:17:58.313Z,106.91
2023-03-26T08:18:58.098Z,105.56
2023-03-26T08:19:58.488Z,103.78
2023-03-26T08:20:58.199Z,98.61
2023-03-26T08:21:58.040Z,96.10
2023-03-26T08:22:58.065Z,91.41
2023-03-26T08:23:58.035Z,87.65
2023-03-26T08:24:58.094Z,91.71
2023-03-26T08:25:58.017Z,93.93
2023-03-26T08:26:58.323Z,94.89
2023-03-26T08:27:58.150Z,95.00
2023-03-26T08:28:57.967Z,96.38
2023-03-26T08:29:57.966Z,94.68
2023-03-26T08:30:58.182Z,94.21
2023-03-26T08:31:57.925Z,94.41
2023-03-26T08:32:58.084Z,100.51
2023-03-26T08:33:57.915Z,110.61
2023-03-26T08:34:57.905Z,121.62
2023-03-26T08:35:57.906Z,134.40
2023-03-26T08:36:57.854Z,138.20
2023-03-26T08:37:57.831Z,146.86
2023-03-26T08:38:57.798Z,152.38
2023-03-26T08:39:57.808Z,152.10
2023-03-26T08:40:57.822Z,154.65
2023-03-26T08:41:57.763Z,151.96
2023-03-26T08:42:57.755Z,146.86
2023-03-26T08:43:57.746Z,140.18
2023-03-26T08:44:57.779Z,144.19
2023-03-26T08:45:57.856Z,154.08
2023-03-26T08:46:57.786Z,158.33
2023-03-26T08:47:57.723Z,160.94
2023-03-26T08:50:17.775Z,94.31
2023-03-26T08:51:18.672Z,121.26
2023-03-26T08:52:18.581Z,138.89
2023-03-26T08:53:18.560Z,145.71
2023-03-26T08:54:18.567Z,151.27
2023-03-26T08:55:18.585Z,161.41
2023-03-26T08:56:18.584Z,179.34
2023-03-26T08:57:18.506Z,196.24
2023-03-26T08:58:18.544Z,201.57
2023-03-26T08:59:18.480Z,206.67
2023-03-26T09:00:18.432Z,206.28
2023-03-26T09:01:18.492Z,199.60
2023-03-26T09:02:18.402Z,198.87
2023-03-26T09:03:18.412Z,199.72
2023-03-26T09:04:18.409Z,202.82
2023-03-26T09:05:18.361Z,201.57
2023-03-26T09:06:25.445Z,203.20
2023-03-26T09:07:18.351Z,208.25
2023-03-26T09:08:18.339Z,199.85
2023-03-26T09:09:19.125Z,190.30
2023-03-26T09:10:18.302Z,183.09
2023-03-26T09:11:18.283Z,196.13
2023-03-26T09:12:18.291Z,203.83
2023-03-26T09:13:18.266Z,207.32
2023-03-26T09:14:18.250Z,202.70
2023-03-26T09:15:18.308Z,196.60
2023-03-26T09:16:18.301Z,196.60
2023-03-26T09:17:18.216Z,185.34
2023-03-26T09:18:18.203Z,186.17
2023-03-26T09:19:18.197Z,183.70
2023-03-26T09:20:18.188Z,179.34
2023-03-26T09:21:18.211Z,171.74
2023-03-26T09:22:18.194Z,169.82
2023-03-26T09:23:18.163Z,174.63
2023-03-26T09:24:18.106Z,176.30
2023-03-26T09:25:18.214Z,173.00
2023-03-26T09:26:18.081Z,173.36
2023-03-26T09:27:18.104Z,165.59
2023-03-26T09:28:18.061Z,159.09
2023-03-26T09:29:18.062Z,154.51
2023-03-26T09:30:18.051Z,153.23
2023-03-26T09:31:18.083Z,153.93
2023-03-26T09:32:18.027Z,151.69
2023-03-26T09:33:18.019Z,155.08
2023-03-26T09:34:17.977Z,149.64
2023-03-26T09:35:18.042Z,150.45
2023-03-26T09:36:17.976Z,152.10
2023-03-26T09:37:17.947Z,154.65
2023-03-26T09:38:17.973Z,156.69
2023-03-26T09:39:17.936Z,157.28
2023-03-26T09:40:17.953Z,164.60
2023-03-26T09:41:17.907Z,161.56
2023-03-26T09:42:17.935Z,158.33
2023-03-26T09:43:17.927Z,149.91
2023-03-26T09:44:17.870Z,146.73
2023-03-26T09:45:17.880Z,141.73
2023-03-26T09:46:17.900Z,140.06
2023-03-26T09:47:17.821Z,139.82
2023-03-26T09:48:17.827Z,142.21
2023-03-26T09:49:17.795Z,138.20
2023-03-26T09:50:17.785Z,127.39
2023-03-26T09:51:17.797Z,120.30
2023-03-26T09:52:17.773Z,113.79
2023-03-26T09:53:17.746Z,110.91
2023-03-26T09:54:17.750Z,108.31
2023-03-26T09:55:17.726Z,101.06
2023-03-26T09:56:17.741Z,96.88
2023-03-26T09:57:17.810Z,95.62
2023-03-26T09:58:17.672Z,90.32
2023-03-26T09:59:17.692Z,86.65
2023-03-26T10:00:17.649Z,84.27
2023-03-26T10:01:17.716Z,76.45
2023-03-26T10:02:17.639Z,69.36
2023-03-26T10:03:17.720Z,68.34
2023-03-26T10:04:17.646Z,67.18
2023-03-26T10:05:17.603Z,66.69
2023-03-26T10:06:17.559Z,66.00
2023-03-26T10:07:17.593Z,66.06
2023-03-26T10:08:17.560Z,67.62
2023-03-26T10:09:17.616Z,70.54
2023-03-26T10:10:17.541Z,72.32
2023-03-26T10:11:17.520Z,75.00
2023-03-26T10:12:17.506Z,80.36
2023-03-26T10:13:17.535Z,83.93
2023-03-26T10:14:17.487Z,85.57
2023-03-26T10:15:17.454Z,85.66
2023-03-26T10:16:17.467Z,91.41
2023-03-26T10:17:17.426Z,92.53
2023-03-26T10:18:27.353Z,93.68
2023-03-26T10:19:18.078Z,94.51
2023-03-26T10:20:17.403Z,95.73
2023-03-26T10:21:17.400Z,94.09
2023-03-26T10:22:17.363Z,92.63
2023-03-26T10:23:17.344Z,90.91
2023-03-26T10:24:17.327Z,89.15
2023-03-26T10:25:17.317Z,80.36
2023-03-26T10:26:17.293Z,72.51
2023-03-26T10:27:17.283Z,64.17
2023-03-26T10:28:17.261Z,59.02
2023-03-26T10:29:17.290Z,54.82
2023-03-26T10:30:17.276Z,53.27
2023-03-26T10:31:19.529Z,53.69
2023-03-26T10:32:17.300Z,54.46
2023-03-26T10:33:17.218Z,60.04
2023-03-26T10:34:28.114Z,63.83
2023-03-26T10:35:17.253Z,67.29
2023-03-26T10:36:17.219Z,70.60
2023-03-26T10:37:17.212Z,75.34
2023-03-26T10:38:17.165Z,79.37
2023-03-26T10:39:37.216Z,85.14
2023-03-26T10:40:17.211Z,88.21
2023-03-26T10:41:17.130Z,88.96
2023-03-26T10:42:17.088Z,90.12
2023-03-26T10:43:17.125Z,83.43
2023-03-26T10:44:17.120Z,81.63
2023-03-26T10:45:17.069Z,80.44
2023-03-26T10:46:17.064Z,78.54
2023-03-26T10:47:17.057Z,77.59
2023-03-26T10:48:17.017Z,76.73
2023-03-26T10:49:17.050Z,72.51
2023-03-26T10:50:23.432Z,70.36
2023-03-26T10:51:16.986Z,69.31
2023-03-26T10:52:16.966Z,65.18
2023-03-26T10:53:16.990Z,60.53
2023-03-26T10:54:16.955Z,57.99
2023-03-26T10:55:16.954Z,55.48
2023-03-26T10:56:16.942Z,53.03
2023-03-26T10:57:16.957Z,51.14
2023-03-26T10:58:16.925Z,48.46
2023-03-26T10:59:16.885Z,46.07
2023-03-26T11:00:16.904Z,43.70
2023-03-26T11:01:16.889Z,41.60
2023-03-26T11:02:16.829Z,40.00
2023-03-26T11:03:16.963Z,38.34
2023-03-26T11:04:16.833Z,37.15
2023-03-26T11:05:16.833Z,35.80
2023-03-26T11:06:16.783Z,34.70
2023-03-26T11:07:16.791Z,34.02
2023-03-26T11:08:16.769Z,33.47
2023-03-26T11:09:16.748Z,33.58
2023-03-26T11:10:16.763Z,34.16
2023-03-26T11:11:16.739Z,34.35
2023-03-26T11:12:26.210Z,35.17
2023-03-26T11:13:16.729Z,35.71
2023-03-26T11:14:24.456Z,35.59
2023-03-26T11:15:16.710Z,36.11
2023-03-26T11:16:16.722Z,37.18
2023-03-26T11:17:40.096Z,37.99
2023-03-26T11:18:16.727Z,38.45
2023-03-26T11:19:16.664Z,38.81
2023-03-26T11:20:16.687Z,38.59
2023-03-26T11:21:18.873Z,38.34
2023-03-26T11:22:16.583Z,38.77
2023-03-26T11:23:16.579Z,39.62
2023-03-26T11:24:16.558Z,40.31
2023-03-26T11:25:16.560Z,39.66
2023-03-26T11:26:16.534Z,39.29
2023-03-26T11:27:17.924Z,39.58
2023-03-26T11:28:16.513Z,40.51
2023-03-26T11:29:31.782Z,40.87
2023-03-26T11:30:16.473Z,41.15
2023-03-26T11:31:16.528Z,41.19
2023-03-26T11:32:16.497Z,40.87
2023-03-26T11:33:16.447Z,40.67
2023-03-26T11:34:16.428Z,40.51
2023-03-26T11:35:16.416Z,39.66
2023-03-26T11:36:16.453Z,39.06
2023-03-26T11:37:16.398Z,38.59
2023-03-26T11:38:16.396Z,38.17
2023-03-26T11:39:16.381Z,38.59
2023-03-26T11:40:16.367Z,38.31
2023-03-26T11:41:16.397Z,37.96
2023-03-26T11:42:16.322Z,37.25
2023-03-26T11:43:16.328Z,36.72
2023-03-26T11:44:16.302Z,36.11
2023-03-26T11:45:16.296Z,35.59
2023-03-26T11:46:16.303Z,35.20
2023-03-26T11:47:16.261Z,34.58
2023-03-26T11:48:16.300Z,33.71
2023-03-26T11:49:16.235Z,33.04
2023-03-26T11:50:16.314Z,32.40
2023-03-26T11:51:16.248Z,31.71
2023-03-26T11:52:16.223Z,31.09
2023-03-26T11:53:16.207Z,30.66
2023-03-26T11:54:16.184Z,30.17
2023-03-26T11:55:16.144Z,29.63
2023-03-26T11:56:16.148Z,29.07
2023-03-26T11:57:16.199Z,28.75
2023-03-26T11:58:16.138Z,28.40
2023-03-26T11:59:16.096Z,28.30
2023-03-26T12:00:16.080Z,27.94
2023-03-26T12:01:16.066Z,27.81
2023-03-26T12:02:16.121Z,27.61
2023-03-26T12:03:16.058Z,27.46
2023-03-26T12:04:16.138Z,27.42
2023-03-26T12:05:16.066Z,27.32
2023-03-26T12:06:16.013Z,27.10
2023-03-26T12:07:16.037Z,27.07
2023-03-26T12:08:16.119Z,27.14
2023-03-26T12:09:15.968Z,27.03
2023-03-26T12:10:19.280Z,26.88
2023-03-26T12:11:15.941Z,27.00
2023-03-26T12:12:15.933Z,26.75
2023-03-26T12:13:15.961Z,26.65
2023-03-26T12:14:15.925Z,26.72
2023-03-26T12:15:15.886Z,26.58
2023-03-26T12:16:15.959Z,26.62
2023-03-26T12:17:15.875Z,26.62
2023-03-26T12:18:15.956Z,26.60
2023-03-26T12:19:15.901Z,26.55
2023-03-26T12:20:15.810Z,26.50
2023-03-26T12:21:15.811Z,26.50
2023-03-26T12:22:15.818Z,26.35
2023-03-26T12:23:15.881Z,26.40
2023-03-26T12:24:15.771Z,26.28
2023-03-26T12:25:15.788Z,26.30
2023-03-26T12:26:15.759Z,26.40
2023-03-26T12:27:15.778Z,26.42
2023-03-26T12:28:15.945Z,26.48
2023-03-26T12:29:15.746Z,26.47
2023-03-26T12:30:15.740Z,26.53
2023-03-26T12:31:15.714Z,26.47
2023-03-26T12:32:15.695Z,26.48
2023-03-26T12:33:15.686Z,26.48
2023-03-26T12:34:15.673Z,26.48
2023-03-26T12:35:15.643Z,26.62
2023-03-26T12:36:15.651Z,26.47
2023-03-26T12:37:15.604Z,26.64